Terminal Aerodrome Forecast
Issued by NWS

Home | Current Version | Previous Version | Text Only | Print | Product List | Glossary On
Versions: 1 2 3 4 5 6 7 8 9 10 11 12 13 14
000
FTUS43 KDLH 181128
TAFBRD
TAF
KBRD 181128Z 1812/1912 20010KT P6SM FEW250 WS020/23040KT
     FM181400 23011KT P6SM SCT250
     FM181700 28014G20KT P6SM SCT250
     FM190000 27010KT P6SM FEW250=

USA.gov is the U.S. government's official web portal to all federal, state and local government web resources and services.